sensor_id;sensor_type;location;lat;lon;timestamp;P1;durP1;ratioP1;P2;durP2;ratioP2
27632;SDS011;15046;50.930;13.334;2022-12-13T00:01:51;26.45;;;13.90;;
27632;SDS011;15046;50.930;13.334;2022-12-13T00:04:18;26.83;;;13.13;;
27632;SDS011;15046;50.930;13.334;2022-12-13T00:06:46;26.15;;;13.27;;
27632;SDS011;15046;50.930;13.334;2022-12-13T00:09:16;27.65;;;12.70;;
27632;SDS011;15046;50.930;13.334;2022-12-13T00:11:43;25.17;;;12.82;;
27632;SDS011;15046;50.930;13.334;2022-12-13T00:14:10;24.73;;;12.18;;
27632;SDS011;15046;50.930;13.334;2022-12-13T00:16:38;23.48;;;11.73;;
27632;SDS011;15046;50.930;13.334;2022-12-13T00:19:04;21.65;;;11.73;;
27632;SDS011;15046;50.930;13.334;2022-12-13T00:21:31;20.55;;;11.15;;
27632;SDS011;15046;50.930;13.334;2022-12-13T00:23:58;24.00;;;12.23;;
27632;SDS011;15046;50.930;13.334;2022-12-13T00:26:26;23.42;;;10.82;;
27632;SDS011;15046;50.930;13.334;2022-12-13T00:28:53;23.88;;;11.85;;
27632;SDS011;15046;50.930;13.334;2022-12-13T00:31:20;28.73;;;12.88;;
27632;SDS011;15046;50.930;13.334;2022-12-13T00:33:48;23.35;;;11.63;;
27632;SDS011;15046;50.930;13.334;2022-12-13T00:36:14;22.20;;;11.60;;
27632;SDS011;15046;50.930;13.334;2022-12-13T00:38:40;21.98;;;11.35;;
27632;SDS011;15046;50.930;13.334;2022-12-13T00:41:11;24.40;;;11.82;;
27632;SDS011;15046;50.930;13.334;2022-12-13T00:43:41;21.75;;;11.48;;
27632;SDS011;15046;50.930;13.334;2022-12-13T00:46:12;23.92;;;11.95;;
27632;SDS011;15046;50.930;13.334;2022-12-13T00:48:39;22.70;;;11.38;;
27632;SDS011;15046;50.930;13.334;2022-12-13T00:51:06;22.08;;;10.52;;
27632;SDS011;15046;50.930;13.334;2022-12-13T00:53:33;25.40;;;11.15;;
27632;SDS011;15046;50.930;13.334;2022-12-13T00:56:00;23.58;;;11.43;;
27632;SDS011;15046;50.930;13.334;2022-12-13T00:58:25;26.15;;;12.00;;
27632;SDS011;15046;50.930;13.334;2022-12-13T01:00:51;22.13;;;11.38;;
27632;SDS011;15046;50.930;13.334;2022-12-13T01:03:17;23.08;;;11.68;;
27632;SDS011;15046;50.930;13.334;2022-12-13T01:05:49;24.20;;;11.23;;
27632;SDS011;15046;50.930;13.334;2022-12-13T01:08:16;20.80;;;10.45;;
27632;SDS011;15046;50.930;13.334;2022-12-13T01:10:45;21.10;;;10.65;;
27632;SDS011;15046;50.930;13.334;2022-12-13T01:13:12;19.42;;;10.57;;
27632;SDS011;15046;50.930;13.334;2022-12-13T01:15:42;21.20;;;10.65;;
27632;SDS011;15046;50.930;13.334;2022-12-13T01:18:10;22.13;;;10.90;;
27632;SDS011;15046;50.930;13.334;2022-12-13T01:20:36;19.25;;;9.98;;
27632;SDS011;15046;50.930;13.334;2022-12-13T01:23:03;19.40;;;9.23;;
27632;SDS011;15046;50.930;13.334;2022-12-13T01:25:30;19.50;;;9.45;;
27632;SDS011;15046;50.930;13.334;2022-12-13T01:27:57;20.85;;;9.80;;
27632;SDS011;15046;50.930;13.334;2022-12-13T01:30:26;18.90;;;10.27;;
27632;SDS011;15046;50.930;13.334;2022-12-13T01:32:52;17.77;;;10.32;;
27632;SDS011;15046;50.930;13.334;2022-12-13T01:35:18;16.17;;;8.02;;
27632;SDS011;15046;50.930;13.334;2022-12-13T01:37:44;19.35;;;9.70;;
27632;SDS011;15046;50.930;13.334;2022-12-13T01:40:10;18.48;;;8.88;;
27632;SDS011;15046;50.930;13.334;2022-12-13T01:42:37;17.15;;;8.50;;
27632;SDS011;15046;50.930;13.334;2022-12-13T01:45:04;18.05;;;8.60;;
27632;SDS011;15046;50.930;13.334;2022-12-13T01:47:55;19.02;;;8.80;;
27632;SDS011;15046;50.930;13.334;2022-12-13T01:50:36;17.30;;;8.35;;
27632;SDS011;15046;50.930;13.334;2022-12-13T01:53:06;18.63;;;9.15;;
27632;SDS011;15046;50.930;13.334;2022-12-13T01:55:33;16.83;;;8.25;;
27632;SDS011;15046;50.930;13.334;2022-12-13T01:58:02;17.00;;;8.63;;
27632;SDS011;15046;50.930;13.334;2022-12-13T02:00:29;18.40;;;8.43;;
27632;SDS011;15046;50.930;13.334;2022-12-13T02:05:38;15.20;;;7.93;;
27632;SDS011;15046;50.930;13.334;2022-12-13T02:08:12;16.50;;;8.18;;
27632;SDS011;15046;50.930;13.334;2022-12-13T02:10:39;18.70;;;9.57;;
27632;SDS011;15046;50.930;13.334;2022-12-13T02:13:07;16.15;;;8.52;;
27632;SDS011;15046;50.930;13.334;2022-12-13T02:15:44;16.88;;;9.38;;
27632;SDS011;15046;50.930;13.334;2022-12-13T02:18:28;18.13;;;7.70;;
27632;SDS011;15046;50.930;13.334;2022-12-13T02:24:01;20.20;;;8.40;;
27632;SDS011;15046;50.930;13.334;2022-12-13T02:35:50;15.27;;;7.82;;
27632;SDS011;15046;50.930;13.334;2022-12-13T02:38:28;17.38;;;8.23;;
27632;SDS011;15046;50.930;13.334;2022-12-13T02:41:02;18.90;;;8.60;;
27632;SDS011;15046;50.930;13.334;2022-12-13T02:43:49;16.98;;;7.85;;
27632;SDS011;15046;50.930;13.334;2022-12-13T02:46:21;18.05;;;8.27;;
27632;SDS011;15046;50.930;13.334;2022-12-13T02:48:50;18.10;;;8.15;;
27632;SDS011;15046;50.930;13.334;2022-12-13T02:51:18;15.07;;;8.10;;
27632;SDS011;15046;50.930;13.334;2022-12-13T02:53:46;18.42;;;8.93;;
27632;SDS011;15046;50.930;13.334;2022-12-13T02:56:12;17.05;;;8.10;;
27632;SDS011;15046;50.930;13.334;2022-12-13T02:58:46;18.02;;;9.32;;
27632;SDS011;15046;50.930;13.334;2022-12-13T03:04:02;17.15;;;8.25;;
27632;SDS011;15046;50.930;13.334;2022-12-13T03:17:55;16.80;;;7.60;;
27632;SDS011;15046;50.930;13.334;2022-12-13T03:20:27;15.68;;;8.32;;
27632;SDS011;15046;50.930;13.334;2022-12-13T03:22:54;17.77;;;9.07;;
27632;SDS011;15046;50.930;13.334;2022-12-13T03:25:21;19.80;;;8.32;;
27632;SDS011;15046;50.930;13.334;2022-12-13T03:27:49;17.45;;;8.60;;
27632;SDS011;15046;50.930;13.334;2022-12-13T03:30:15;17.65;;;8.48;;
27632;SDS011;15046;50.930;13.334;2022-12-13T03:32:41;16.65;;;8.00;;
27632;SDS011;15046;50.930;13.334;2022-12-13T03:35:07;16.65;;;8.23;;
27632;SDS011;15046;50.930;13.334;2022-12-13T03:37:33;14.63;;;7.25;;
27632;SDS011;15046;50.930;13.334;2022-12-13T03:39:59;14.95;;;7.53;;
27632;SDS011;15046;50.930;13.334;2022-12-13T03:42:25;15.00;;;7.72;;
27632;SDS011;15046;50.930;13.334;2022-12-13T03:44:51;18.38;;;9.40;;
27632;SDS011;15046;50.930;13.334;2022-12-13T03:47:16;19.55;;;8.82;;
27632;SDS011;15046;50.930;13.334;2022-12-13T03:49:42;18.00;;;8.38;;
27632;SDS011;15046;50.930;13.334;2022-12-13T03:52:08;15.35;;;8.13;;
27632;SDS011;15046;50.930;13.334;2022-12-13T03:54:34;16.90;;;8.25;;
27632;SDS011;15046;50.930;13.334;2022-12-13T03:56:59;16.13;;;7.78;;
27632;SDS011;15046;50.930;13.334;2022-12-13T03:59:25;18.90;;;7.80;;
27632;SDS011;15046;50.930;13.334;2022-12-13T04:01:51;16.33;;;7.40;;
27632;SDS011;15046;50.930;13.334;2022-12-13T04:04:17;17.55;;;8.13;;
27632;SDS011;15046;50.930;13.334;2022-12-13T04:06:43;17.42;;;7.80;;
27632;SDS011;15046;50.930;13.334;2022-12-13T04:09:09;14.50;;;7.57;;
27632;SDS011;15046;50.930;13.334;2022-12-13T04:11:34;14.52;;;7.72;;
27632;SDS011;15046;50.930;13.334;2022-12-13T04:14:19;15.02;;;7.63;;
27632;SDS011;15046;50.930;13.334;2022-12-13T04:16:45;17.88;;;7.70;;
27632;SDS011;15046;50.930;13.334;2022-12-13T04:19:10;15.73;;;8.02;;
27632;SDS011;15046;50.930;13.334;2022-12-13T04:21:36;19.15;;;9.85;;
27632;SDS011;15046;50.930;13.334;2022-12-13T04:24:02;17.60;;;8.05;;
27632;SDS011;15046;50.930;13.334;2022-12-13T04:26:28;20.63;;;8.55;;
27632;SDS011;15046;50.930;13.334;2022-12-13T04:28:54;16.27;;;7.63;;
27632;SDS011;15046;50.930;13.334;2022-12-13T04:31:20;16.30;;;8.00;;
27632;SDS011;15046;50.930;13.334;2022-12-13T04:33:46;16.65;;;8.23;;
27632;SDS011;15046;50.930;13.334;2022-12-13T04:36:12;14.70;;;7.18;;
27632;SDS011;15046;50.930;13.334;2022-12-13T04:38:44;14.52;;;7.50;;
27632;SDS011;15046;50.930;13.334;2022-12-13T04:41:14;17.10;;;8.75;;
27632;SDS011;15046;50.930;13.334;2022-12-13T04:43:41;14.73;;;7.50;;
27632;SDS011;15046;50.930;13.334;2022-12-13T04:46:07;15.52;;;7.47;;
27632;SDS011;15046;50.930;13.334;2022-12-13T04:48:33;18.83;;;7.22;;
27632;SDS011;15046;50.930;13.334;2022-12-13T04:50:59;13.68;;;7.05;;
27632;SDS011;15046;50.930;13.334;2022-12-13T04:53:26;15.82;;;7.22;;
27632;SDS011;15046;50.930;13.334;2022-12-13T04:55:55;13.48;;;6.93;;
27632;SDS011;15046;50.930;13.334;2022-12-13T04:58:21;14.27;;;7.00;;
27632;SDS011;15046;50.930;13.334;2022-12-13T05:00:47;13.63;;;6.80;;
27632;SDS011;15046;50.930;13.334;2022-12-13T05:03:13;12.10;;;6.25;;
27632;SDS011;15046;50.930;13.334;2022-12-13T05:05:39;12.85;;;7.40;;
27632;SDS011;15046;50.930;13.334;2022-12-13T05:08:05;13.57;;;6.65;;
27632;SDS011;15046;50.930;13.334;2022-12-13T05:10:32;13.35;;;6.97;;
27632;SDS011;15046;50.930;13.334;2022-12-13T05:12:59;14.35;;;6.32;;
27632;SDS011;15046;50.930;13.334;2022-12-13T05:15:25;15.18;;;6.85;;
27632;SDS011;15046;50.930;13.334;2022-12-13T05:17:51;11.98;;;6.47;;
27632;SDS011;15046;50.930;13.334;2022-12-13T05:20:19;16.73;;;7.90;;
27632;SDS011;15046;50.930;13.334;2022-12-13T05:23:28;23.30;;;10.40;;
27632;SDS011;15046;50.930;13.334;2022-12-13T05:25:53;25.08;;;10.30;;
27632;SDS011;15046;50.930;13.334;2022-12-13T05:28:19;27.83;;;11.65;;
27632;SDS011;15046;50.930;13.334;2022-12-13T05:30:49;23.95;;;11.35;;
27632;SDS011;15046;50.930;13.334;2022-12-13T05:33:16;18.98;;;9.60;;
27632;SDS011;15046;50.930;13.334;2022-12-13T05:35:42;18.38;;;9.57;;
27632;SDS011;15046;50.930;13.334;2022-12-13T05:38:08;19.85;;;9.85;;
27632;SDS011;15046;50.930;13.334;2022-12-13T05:40:34;14.23;;;7.88;;
27632;SDS011;15046;50.930;13.334;2022-12-13T05:43:00;14.35;;;7.35;;
27632;SDS011;15046;50.930;13.334;2022-12-13T05:45:26;15.07;;;7.50;;
27632;SDS011;15046;50.930;13.334;2022-12-13T05:47:52;13.75;;;6.93;;
27632;SDS011;15046;50.930;13.334;2022-12-13T05:50:18;14.45;;;6.88;;
27632;SDS011;15046;50.930;13.334;2022-12-13T05:52:44;14.88;;;6.95;;
27632;SDS011;15046;50.930;13.334;2022-12-13T05:55:10;14.68;;;6.40;;
27632;SDS011;15046;50.930;13.334;2022-12-13T05:57:36;12.93;;;5.90;;
27632;SDS011;15046;50.930;13.334;2022-12-13T06:00:03;13.23;;;7.05;;
27632;SDS011;15046;50.930;13.334;2022-12-13T06:02:35;12.45;;;6.47;;
27632;SDS011;15046;50.930;13.334;2022-12-13T06:05:05;14.07;;;7.07;;
27632;SDS011;15046;50.930;13.334;2022-12-13T06:07:34;12.20;;;6.22;;
27632;SDS011;15046;50.930;13.334;2022-12-13T06:10:00;12.95;;;6.70;;
27632;SDS011;15046;50.930;13.334;2022-12-13T06:12:26;12.68;;;7.13;;
27632;SDS011;15046;50.930;13.334;2022-12-13T06:14:52;14.50;;;6.70;;
27632;SDS011;15046;50.930;13.334;2022-12-13T06:17:18;14.48;;;6.93;;
27632;SDS011;15046;50.930;13.334;2022-12-13T06:19:46;17.80;;;7.85;;
27632;SDS011;15046;50.930;13.334;2022-12-13T06:22:11;18.70;;;8.68;;
27632;SDS011;15046;50.930;13.334;2022-12-13T06:24:37;22.35;;;9.73;;
27632;SDS011;15046;50.930;13.334;2022-12-13T06:27:03;20.67;;;9.50;;
27632;SDS011;15046;50.930;13.334;2022-12-13T06:29:29;21.10;;;9.30;;
27632;SDS011;15046;50.930;13.334;2022-12-13T06:31:58;20.40;;;9.00;;
27632;SDS011;15046;50.930;13.334;2022-12-13T06:34:25;20.25;;;9.50;;
27632;SDS011;15046;50.930;13.334;2022-12-13T06:36:51;19.67;;;9.15;;
27632;SDS011;15046;50.930;13.334;2022-12-13T06:39:17;18.60;;;7.97;;
27632;SDS011;15046;50.930;13.334;2022-12-13T06:41:43;22.75;;;10.60;;
27632;SDS011;15046;50.930;13.334;2022-12-13T06:44:09;19.73;;;9.13;;
27632;SDS011;15046;50.930;13.334;2022-12-13T06:46:35;20.13;;;9.38;;
27632;SDS011;15046;50.930;13.334;2022-12-13T06:49:01;20.83;;;9.15;;
27632;SDS011;15046;50.930;13.334;2022-12-13T06:51:31;25.02;;;10.48;;
27632;SDS011;15046;50.930;13.334;2022-12-13T06:53:58;20.73;;;9.20;;
27632;SDS011;15046;50.930;13.334;2022-12-13T06:56:26;22.70;;;9.30;;
27632;SDS011;15046;50.930;13.334;2022-12-13T06:58:52;21.35;;;10.68;;
27632;SDS011;15046;50.930;13.334;2022-12-13T07:01:18;20.73;;;9.35;;
27632;SDS011;15046;50.930;13.334;2022-12-13T07:03:44;21.15;;;9.60;;
27632;SDS011;15046;50.930;13.334;2022-12-13T07:06:14;22.05;;;9.73;;
27632;SDS011;15046;50.930;13.334;2022-12-13T07:08:43;19.67;;;8.30;;
27632;SDS011;15046;50.930;13.334;2022-12-13T07:11:14;16.38;;;8.02;;
27632;SDS011;15046;50.930;13.334;2022-12-13T07:13:41;20.77;;;9.32;;
27632;SDS011;15046;50.930;13.334;2022-12-13T07:16:08;20.83;;;8.77;;
27632;SDS011;15046;50.930;13.334;2022-12-13T07:18:34;16.75;;;8.05;;
27632;SDS011;15046;50.930;13.334;2022-12-13T07:21:03;18.58;;;8.27;;
27632;SDS011;15046;50.930;13.334;2022-12-13T07:23:29;21.98;;;8.80;;
27632;SDS011;15046;50.930;13.334;2022-12-13T07:25:55;19.85;;;7.93;;
27632;SDS011;15046;50.930;13.334;2022-12-13T07:28:21;18.40;;;8.98;;
27632;SDS011;15046;50.930;13.334;2022-12-13T07:30:47;20.20;;;8.88;;
27632;SDS011;15046;50.930;13.334;2022-12-13T07:33:13;20.75;;;9.73;;
27632;SDS011;15046;50.930;13.334;2022-12-13T07:35:39;22.85;;;9.52;;
27632;SDS011;15046;50.930;13.334;2022-12-13T07:38:06;21.50;;;9.70;;
27632;SDS011;15046;50.930;13.334;2022-12-13T07:40:33;18.42;;;8.68;;
27632;SDS011;15046;50.930;13.334;2022-12-13T07:43:00;20.40;;;8.68;;
27632;SDS011;15046;50.930;13.334;2022-12-13T07:45:26;22.08;;;9.35;;
27632;SDS011;15046;50.930;13.334;2022-12-13T07:47:52;25.90;;;9.25;;
27632;SDS011;15046;50.930;13.334;2022-12-13T07:50:18;21.60;;;9.48;;
27632;SDS011;15046;50.930;13.334;2022-12-13T07:52:46;20.33;;;8.65;;
27632;SDS011;15046;50.930;13.334;2022-12-13T07:55:12;23.15;;;9.27;;
27632;SDS011;15046;50.930;13.334;2022-12-13T07:57:38;19.98;;;9.68;;
27632;SDS011;15046;50.930;13.334;2022-12-13T08:00:04;19.30;;;8.68;;
27632;SDS011;15046;50.930;13.334;2022-12-13T08:02:30;21.17;;;8.95;;
27632;SDS011;15046;50.930;13.334;2022-12-13T08:04:56;18.95;;;7.85;;
27632;SDS011;15046;50.930;13.334;2022-12-13T08:07:22;20.58;;;9.00;;
27632;SDS011;15046;50.930;13.334;2022-12-13T08:09:48;19.65;;;8.43;;
27632;SDS011;15046;50.930;13.334;2022-12-13T08:12:14;15.02;;;8.40;;
27632;SDS011;15046;50.930;13.334;2022-12-13T08:14:39;17.92;;;8.60;;
27632;SDS011;15046;50.930;13.334;2022-12-13T08:17:05;18.02;;;9.15;;
27632;SDS011;15046;50.930;13.334;2022-12-13T08:19:31;20.40;;;9.00;;
27632;SDS011;15046;50.930;13.334;2022-12-13T08:21:57;20.15;;;9.10;;
27632;SDS011;15046;50.930;13.334;2022-12-13T08:24:24;18.88;;;8.35;;
27632;SDS011;15046;50.930;13.334;2022-12-13T08:26:51;20.02;;;9.40;;
27632;SDS011;15046;50.930;13.334;2022-12-13T08:29:17;19.10;;;8.48;;
27632;SDS011;15046;50.930;13.334;2022-12-13T08:31:43;18.08;;;8.43;;
27632;SDS011;15046;50.930;13.334;2022-12-13T08:34:09;25.83;;;9.95;;
27632;SDS011;15046;50.930;13.334;2022-12-13T08:36:34;15.65;;;8.50;;
27632;SDS011;15046;50.930;13.334;2022-12-13T08:39:00;17.15;;;8.20;;
27632;SDS011;15046;50.930;13.334;2022-12-13T08:41:27;26.35;;;10.35;;
27632;SDS011;15046;50.930;13.334;2022-12-13T08:43:53;39.65;;;16.40;;
27632;SDS011;15046;50.930;13.334;2022-12-13T08:46:19;37.58;;;14.05;;
27632;SDS011;15046;50.930;13.334;2022-12-13T08:48:45;28.23;;;13.32;;
27632;SDS011;15046;50.930;13.334;2022-12-13T08:51:11;28.30;;;12.35;;
27632;SDS011;15046;50.930;13.334;2022-12-13T08:53:42;23.52;;;11.88;;
27632;SDS011;15046;50.930;13.334;2022-12-13T08:56:11;23.67;;;10.25;;
27632;SDS011;15046;50.930;13.334;2022-12-13T08:58:37;26.50;;;12.88;;
27632;SDS011;15046;50.930;13.334;2022-12-13T09:01:06;28.08;;;13.15;;
27632;SDS011;15046;50.930;13.334;2022-12-13T09:03:33;21.30;;;9.98;;
27632;SDS011;15046;50.930;13.334;2022-12-13T09:06:10;20.73;;;10.13;;
27632;SDS011;15046;50.930;13.334;2022-12-13T09:08:37;20.45;;;10.52;;
27632;SDS011;15046;50.930;13.334;2022-12-13T09:11:04;16.65;;;8.90;;
27632;SDS011;15046;50.930;13.334;2022-12-13T09:13:32;20.27;;;8.75;;
27632;SDS011;15046;50.930;13.334;2022-12-13T09:16:19;19.25;;;9.90;;
27632;SDS011;15046;50.930;13.334;2022-12-13T09:18:48;19.58;;;9.50;;
27632;SDS011;15046;50.930;13.334;2022-12-13T09:21:15;20.33;;;9.50;;
27632;SDS011;15046;50.930;13.334;2022-12-13T09:23:42;17.90;;;9.35;;
27632;SDS011;15046;50.930;13.334;2022-12-13T09:26:13;17.63;;;8.15;;
27632;SDS011;15046;50.930;13.334;2022-12-13T09:28:40;16.92;;;7.65;;
27632;SDS011;15046;50.930;13.334;2022-12-13T09:31:10;16.20;;;8.40;;
27632;SDS011;15046;50.930;13.334;2022-12-13T09:33:38;20.35;;;9.77;;
27632;SDS011;15046;50.930;13.334;2022-12-13T09:36:04;18.77;;;8.95;;
27632;SDS011;15046;50.930;13.334;2022-12-13T09:38:32;17.88;;;9.27;;
27632;SDS011;15046;50.930;13.334;2022-12-13T09:40:59;17.95;;;9.05;;
27632;SDS011;15046;50.930;13.334;2022-12-13T09:43:37;15.35;;;8.52;;
27632;SDS011;15046;50.930;13.334;2022-12-13T09:46:05;19.27;;;9.55;;
27632;SDS011;15046;50.930;13.334;2022-12-13T09:48:36;19.58;;;8.85;;
27632;SDS011;15046;50.930;13.334;2022-12-13T09:51:02;19.58;;;8.57;;
27632;SDS011;15046;50.930;13.334;2022-12-13T09:53:28;25.30;;;9.10;;
27632;SDS011;15046;50.930;13.334;2022-12-13T09:55:54;17.45;;;8.55;;
27632;SDS011;15046;50.930;13.334;2022-12-13T09:58:21;18.27;;;8.85;;
27632;SDS011;15046;50.930;13.334;2022-12-13T10:00:50;16.90;;;9.85;;
27632;SDS011;15046;50.930;13.334;2022-12-13T10:03:19;18.83;;;8.95;;
27632;SDS011;15046;50.930;13.334;2022-12-13T10:06:28;17.02;;;8.18;;
27632;SDS011;15046;50.930;13.334;2022-12-13T10:08:40;15.40;;;7.32;;
27632;SDS011;15046;50.930;13.334;2022-12-13T10:11:21;15.07;;;7.70;;
27632;SDS011;15046;50.930;13.334;2022-12-13T10:13:48;16.92;;;7.80;;
27632;SDS011;15046;50.930;13.334;2022-12-13T10:18:52;15.63;;;8.02;;
27632;SDS011;15046;50.930;13.334;2022-12-13T10:21:35;13.73;;;7.50;;
27632;SDS011;15046;50.930;13.334;2022-12-13T10:24:10;14.65;;;6.78;;
27632;SDS011;15046;50.930;13.334;2022-12-13T10:26:38;14.93;;;7.50;;
27632;SDS011;15046;50.930;13.334;2022-12-13T10:29:04;12.77;;;7.22;;
27632;SDS011;15046;50.930;13.334;2022-12-13T10:31:37;14.43;;;7.50;;
27632;SDS011;15046;50.930;13.334;2022-12-13T10:34:29;12.13;;;7.32;;
27632;SDS011;15046;50.930;13.334;2022-12-13T10:37:00;13.57;;;6.53;;
27632;SDS011;15046;50.930;13.334;2022-12-13T10:39:47;15.48;;;7.68;;
27632;SDS011;15046;50.930;13.334;2022-12-13T10:42:14;12.85;;;6.88;;
27632;SDS011;15046;50.930;13.334;2022-12-13T10:44:41;17.38;;;7.75;;
27632;SDS011;15046;50.930;13.334;2022-12-13T10:47:21;11.07;;;6.38;;
27632;SDS011;15046;50.930;13.334;2022-12-13T10:52:40;15.35;;;8.32;;
27632;SDS011;15046;50.930;13.334;2022-12-13T10:55:21;16.27;;;9.18;;
27632;SDS011;15046;50.930;13.334;2022-12-13T10:57:53;21.83;;;10.15;;
27632;SDS011;15046;50.930;13.334;2022-12-13T11:00:29;19.35;;;10.48;;
27632;SDS011;15046;50.930;13.334;2022-12-13T11:03:04;14.80;;;8.45;;
27632;SDS011;15046;50.930;13.334;2022-12-13T11:05:31;14.95;;;9.23;;
27632;SDS011;15046;50.930;13.334;2022-12-13T11:08:12;15.18;;;8.52;;
27632;SDS011;15046;50.930;13.334;2022-12-13T11:11:00;15.23;;;8.50;;
27632;SDS011;15046;50.930;13.334;2022-12-13T11:13:37;13.07;;;7.63;;
27632;SDS011;15046;50.930;13.334;2022-12-13T11:16:31;14.65;;;8.32;;
27632;SDS011;15046;50.930;13.334;2022-12-13T11:18:59;13.80;;;7.68;;
27632;SDS011;15046;50.930;13.334;2022-12-13T11:21:29;12.50;;;7.07;;
27632;SDS011;15046;50.930;13.334;2022-12-13T11:24:02;6.78;;;4.13;;
27632;SDS011;15046;50.930;13.334;2022-12-13T11:26:31;7.88;;;4.43;;
27632;SDS011;15046;50.930;13.334;2022-12-13T11:29:07;5.75;;;3.88;;
27632;SDS011;15046;50.930;13.334;2022-12-13T11:31:54;7.75;;;4.60;;
27632;SDS011;15046;50.930;13.334;2022-12-13T11:39:50;8.20;;;4.78;;
27632;SDS011;15046;50.930;13.334;2022-12-13T11:42:40;8.88;;;4.60;;
27632;SDS011;15046;50.930;13.334;2022-12-13T11:45:27;6.93;;;4.07;;
27632;SDS011;15046;50.930;13.334;2022-12-13T11:50:44;12.05;;;6.78;;
27632;SDS011;15046;50.930;13.334;2022-12-13T11:56:18;10.27;;;5.78;;
27632;SDS011;15046;50.930;13.334;2022-12-13T12:01:29;10.90;;;6.45;;
27632;SDS011;15046;50.930;13.334;2022-12-13T12:03:58;8.95;;;5.07;;
27632;SDS011;15046;50.930;13.334;2022-12-13T12:06:39;9.32;;;4.95;;
27632;SDS011;15046;50.930;13.334;2022-12-13T12:09:13;7.22;;;4.65;;
27632;SDS011;15046;50.930;13.334;2022-12-13T12:17:13;8.05;;;4.40;;
27632;SDS011;15046;50.930;13.334;2022-12-13T12:19:44;6.30;;;4.13;;
27632;SDS011;15046;50.930;13.334;2022-12-13T12:25:13;10.80;;;5.18;;
27632;SDS011;15046;50.930;13.334;2022-12-13T12:36:29;10.73;;;5.90;;
27632;SDS011;15046;50.930;13.334;2022-12-13T12:54:59;10.43;;;5.90;;
27632;SDS011;15046;50.930;13.334;2022-12-13T13:00:38;14.20;;;5.80;;
27632;SDS011;15046;50.930;13.334;2022-12-13T13:03:21;11.45;;;6.18;;
27632;SDS011;15046;50.930;13.334;2022-12-13T13:05:51;11.57;;;6.32;;
27632;SDS011;15046;50.930;13.334;2022-12-13T13:08:26;10.88;;;6.65;;
27632;SDS011;15046;50.930;13.334;2022-12-13T13:11:12;13.05;;;6.47;;
27632;SDS011;15046;50.930;13.334;2022-12-13T13:18:51;11.52;;;6.60;;
27632;SDS011;15046;50.930;13.334;2022-12-13T13:26:28;10.60;;;5.88;;
27632;SDS011;15046;50.930;13.334;2022-12-13T13:31:55;11.00;;;5.70;;
27632;SDS011;15046;50.930;13.334;2022-12-13T13:34:26;12.13;;;6.35;;
27632;SDS011;15046;50.930;13.334;2022-12-13T13:36:53;11.35;;;5.93;;
27632;SDS011;15046;50.930;13.334;2022-12-13T13:47:11;12.77;;;6.80;;
27632;SDS011;15046;50.930;13.334;2022-12-13T14:30:54;18.35;;;9.07;;
27632;SDS011;15046;50.930;13.334;2022-12-13T14:33:20;18.65;;;9.80;;
27632;SDS011;15046;50.930;13.334;2022-12-13T14:35:54;15.57;;;7.40;;
27632;SDS011;15046;50.930;13.334;2022-12-13T14:38:22;16.95;;;8.75;;
27632;SDS011;15046;50.930;13.334;2022-12-13T14:40:51;18.52;;;9.05;;
27632;SDS011;15046;50.930;13.334;2022-12-13T14:45:54;18.75;;;8.50;;
27632;SDS011;15046;50.930;13.334;2022-12-13T14:48:26;17.50;;;9.38;;
27632;SDS011;15046;50.930;13.334;2022-12-13T14:50:55;19.33;;;10.52;;
27632;SDS011;15046;50.930;13.334;2022-12-13T14:53:28;20.75;;;10.85;;
27632;SDS011;15046;50.930;13.334;2022-12-13T14:58:32;21.42;;;11.55;;
27632;SDS011;15046;50.930;13.334;2022-12-13T15:00:57;26.58;;;13.40;;
27632;SDS011;15046;50.930;13.334;2022-12-13T15:03:24;24.55;;;11.77;;
27632;SDS011;15046;50.930;13.334;2022-12-13T15:05:55;24.10;;;12.57;;
27632;SDS011;15046;50.930;13.334;2022-12-13T15:08:23;23.13;;;12.02;;
27632;SDS011;15046;50.930;13.334;2022-12-13T15:10:54;24.02;;;12.73;;
27632;SDS011;15046;50.930;13.334;2022-12-13T15:16:21;23.40;;;11.23;;
27632;SDS011;15046;50.930;13.334;2022-12-13T15:19:12;21.40;;;11.02;;
27632;SDS011;15046;50.930;13.334;2022-12-13T15:21:39;22.90;;;11.68;;
27632;SDS011;15046;50.930;13.334;2022-12-13T15:24:05;19.92;;;10.43;;
27632;SDS011;15046;50.930;13.334;2022-12-13T15:26:31;20.67;;;10.98;;
27632;SDS011;15046;50.930;13.334;2022-12-13T15:29:03;18.98;;;10.30;;
27632;SDS011;15046;50.930;13.334;2022-12-13T15:31:32;17.88;;;9.52;;
27632;SDS011;15046;50.930;13.334;2022-12-13T15:37:04;21.98;;;10.38;;
27632;SDS011;15046;50.930;13.334;2022-12-13T15:39:42;23.40;;;11.43;;
27632;SDS011;15046;50.930;13.334;2022-12-13T15:44:56;27.90;;;13.40;;
27632;SDS011;15046;50.930;13.334;2022-12-13T15:47:25;25.92;;;13.40;;
27632;SDS011;15046;50.930;13.334;2022-12-13T15:49:52;25.27;;;12.27;;
27632;SDS011;15046;50.930;13.334;2022-12-13T15:55:01;20.25;;;10.77;;
27632;SDS011;15046;50.930;13.334;2022-12-13T15:57:34;20.25;;;10.07;;
27632;SDS011;15046;50.930;13.334;2022-12-13T16:02:45;23.15;;;11.65;;
27632;SDS011;15046;50.930;13.334;2022-12-13T16:05:29;23.67;;;11.73;;
27632;SDS011;15046;50.930;13.334;2022-12-13T16:08:04;25.70;;;11.88;;
27632;SDS011;15046;50.930;13.334;2022-12-13T16:10:32;26.58;;;11.73;;
27632;SDS011;15046;50.930;13.334;2022-12-13T16:13:03;24.60;;;10.85;;
27632;SDS011;15046;50.930;13.334;2022-12-13T16:15:49;22.95;;;11.02;;
27632;SDS011;15046;50.930;13.334;2022-12-13T16:18:20;25.27;;;11.65;;
27632;SDS011;15046;50.930;13.334;2022-12-13T16:20:48;22.33;;;11.25;;
27632;SDS011;15046;50.930;13.334;2022-12-13T16:23:14;20.42;;;9.82;;
27632;SDS011;15046;50.930;13.334;2022-12-13T16:25:40;22.85;;;10.00;;
27632;SDS011;15046;50.930;13.334;2022-12-13T16:28:08;22.08;;;10.70;;
27632;SDS011;15046;50.930;13.334;2022-12-13T16:33:16;25.70;;;13.07;;
27632;SDS011;15046;50.930;13.334;2022-12-13T16:35:43;27.80;;;13.10;;
27632;SDS011;15046;50.930;13.334;2022-12-13T16:38:12;24.15;;;12.85;;
27632;SDS011;15046;50.930;13.334;2022-12-13T16:40:40;23.65;;;11.63;;
27632;SDS011;15046;50.930;13.334;2022-12-13T16:43:06;30.08;;;13.35;;
27632;SDS011;15046;50.930;13.334;2022-12-13T16:45:45;31.73;;;14.45;;
27632;SDS011;15046;50.930;13.334;2022-12-13T16:48:13;31.45;;;13.90;;
27632;SDS011;15046;50.930;13.334;2022-12-13T16:50:43;29.00;;;13.50;;
27632;SDS011;15046;50.930;13.334;2022-12-13T16:53:10;29.23;;;14.15;;
27632;SDS011;15046;50.930;13.334;2022-12-13T16:55:37;32.58;;;14.85;;
27632;SDS011;15046;50.930;13.334;2022-12-13T16:58:03;26.73;;;12.35;;
27632;SDS011;15046;50.930;13.334;2022-12-13T17:00:31;26.45;;;12.80;;
27632;SDS011;15046;50.930;13.334;2022-12-13T17:02:58;32.47;;;14.18;;
27632;SDS011;15046;50.930;13.334;2022-12-13T17:05:25;34.95;;;17.00;;
27632;SDS011;15046;50.930;13.334;2022-12-13T17:07:52;34.75;;;15.55;;
27632;SDS011;15046;50.930;13.334;2022-12-13T17:10:19;31.13;;;16.73;;
27632;SDS011;15046;50.930;13.334;2022-12-13T17:12:45;27.80;;;15.60;;
27632;SDS011;15046;50.930;13.334;2022-12-13T17:15:11;38.75;;;22.35;;
27632;SDS011;15046;50.930;13.334;2022-12-13T17:17:38;27.55;;;13.77;;
27632;SDS011;15046;50.930;13.334;2022-12-13T17:20:06;29.23;;;15.15;;